createdAt,value
2018-09-15T00:33:27.995Z,47.8
2018-09-15T00:43:42.505Z,49.4
2018-09-15T01:14:00.680Z,52.6
2018-09-15T01:46:27.333Z,52.0
2018-09-15T01:56:42.201Z,51.4
2018-09-15T02:06:56.115Z,52.9
2018-09-15T02:17:43.620Z,53.5
2018-09-15T02:27:58.252Z,53.9
2018-09-15T02:39:02.073Z,54.2
2018-09-15T04:34:36.371Z,53.3
2018-09-15T04:44:50.796Z,54.6
2018-09-15T04:55:58.992Z,56.2
2018-09-15T05:36:54.221Z,56.8
2018-09-15T05:47:08.546Z,56.9
2018-09-15T05:57:23.115Z,58.8
2018-09-15T06:08:13.977Z,58.9
2018-09-15T06:19:00.826Z,58.3
2018-09-15T06:29:48.037Z,58.2
2018-09-15T06:40:38.607Z,59.5
2018-09-15T06:54:18.666Z,59.7
2018-09-15T07:19:36.992Z,61.6
2018-09-15T07:30:28.617Z,61.2
2018-09-15T07:42:10.573Z,60.1
2018-09-15T07:52:43.740Z,61.3
2018-09-15T08:03:28.714Z,60.6
2018-09-15T08:24:16.071Z,61.0
2018-09-15T08:34:45.400Z,61.1
2018-09-15T08:45:02.522Z,59.9
2018-09-15T08:55:47.871Z,58.7
2018-09-15T09:27:09.640Z,58.9
2018-09-15T09:37:31.739Z,58.5
2018-09-15T09:47:45.677Z,54.6
2018-09-15T09:58:08.550Z,53.0
2018-09-15T10:08:22.787Z,51.4
2018-09-15T10:18:58.265Z,48.5
2018-09-15T10:29:50.183Z,46.7
2018-09-15T10:40:22.849Z,45.3
2018-09-15T10:50:34.778Z,43.2
2018-09-15T11:01:24.465Z,43.0
2018-09-15T11:12:17.577Z,43.4
2018-09-15T11:23:02.543Z,44.8
2018-09-15T11:33:26.896Z,45.6
2018-09-15T11:43:40.262Z,45.5
2018-09-15T11:54:37.923Z,46.2
2018-09-15T12:05:01.830Z,46.2
2018-09-15T12:15:19.405Z,47.7
2018-09-15T12:25:32.994Z,48.7
2018-09-15T12:35:47.353Z,49.8
2018-09-15T12:46:10.591Z,49.7
2018-09-15T12:56:24.834Z,49.2
2018-09-15T13:07:09.920Z,47.3
2018-09-15T13:17:55.133Z,45.4
2018-09-15T13:28:09.408Z,45.6
2018-09-15T13:38:23.523Z,45.9
2018-09-15T13:48:48.039Z,45.6
2018-09-15T13:59:01.756Z,43.3
2018-09-15T14:09:48.704Z,42.9
2018-09-15T14:20:52.786Z,42.7
2018-09-15T14:31:06.079Z,43.2
2018-09-15T14:52:22.115Z,43.5
2018-09-15T15:02:35.515Z,43.6
2018-09-15T15:12:49.868Z,43.5
2018-09-15T15:34:06.235Z,44.0
2018-09-15T15:44:20.288Z,44.3
2018-09-15T15:55:07.916Z,44.3
2018-09-15T16:05:52.997Z,44.4
2018-09-15T16:16:38.286Z,44.8
2018-09-15T16:27:15.719Z,45.0
2018-09-15T16:37:27.464Z,45.3
2018-09-15T16:47:41.548Z,45.4
2018-09-15T16:57:55.716Z,45.3
2018-09-15T17:08:35.105Z,45.7
2018-09-15T17:18:54.257Z,46.0
2018-09-15T17:29:08.079Z,46.2
2018-09-15T17:39:21.408Z,46.3
2018-09-15T17:49:35.610Z,46.8
2018-09-15T18:00:19.952Z,47.0
2018-09-15T18:10:34.474Z,47.5
2018-09-15T18:31:40.201Z,48.0
2018-09-15T18:41:59.256Z,48.2
2018-09-15T18:52:44.471Z,48.2
2018-09-15T19:03:29.547Z,48.4
2018-09-15T19:13:44.689Z,48.9
2018-09-15T19:23:58.526Z,49.0
2018-09-15T19:34:44.118Z,49.2
2018-09-15T19:45:35.337Z,49.3
2018-09-15T20:06:58.301Z,50.1
2018-09-15T20:17:14.965Z,50.2
2018-09-15T20:28:54.785Z,50.6
2018-09-15T20:53:04.340Z,51.1
2018-09-15T21:03:41.371Z,51.1
2018-09-15T21:14:27.097Z,51.4
2018-09-15T21:26:01.861Z,51.5
2018-09-15T21:36:16.169Z,51.9
2018-09-15T21:47:01.098Z,51.7
2018-09-15T21:57:47.175Z,52.0
2018-09-15T22:18:18.939Z,52.2
2018-09-15T22:29:06.737Z,52.2
2018-09-15T22:40:15.309Z,52.5
2018-09-15T22:51:52.205Z,52.3
2018-09-15T23:03:30.350Z,52.1
2018-09-15T23:24:45.677Z,52.2
2018-09-15T23:35:27.491Z,52.2
2018-09-15T23:46:57.247Z,52.2
2018-09-15T23:58:32.795Z,51.8
